ESNL

Lycksele Airport

Sweden
METAR ESNL 171250Z AUTO 00000KT 9000 OVC010/// M08/M10 Q1019
Observed Flight Rules
Dec-17 @ 12:50 UTC (21 minutes ago) Marginal Visual Flight Rules
Visibility Clouds
8,996 meters
  • Overcast at 1,000' AGL
Temperatures Readings
Current -8°C / 18°F
Dewpoint -10°C / 14°F
Humidity 86%
Altimeter 30.09" Hg
Pressure 1019 hPa
Elevation 214
METAR ESNL 171250Z AUTO 00000KT 9000 OVC010/// M08/M10 Q1019
Observed Flight Rules
Dec-17 @ 12:50 UTC
(21 minutes ago)
MVFR
Clouds
  • Overcast at 1,000' AGL
Temperature Dewpoint
-8°C / 18°F -10°C / 14°F
Humidity Altimeter Pressure
86% 30.09" Hg 1019 hPa